Time;durP1;ratioP1;P1;durP2;ratioP2;P2;SDS_P1;SDS_P2;PMS_P1;PMS_P2;Temp;Humidity;BMP_temperature;BMP_pressure;BME280_temperature;BME280_humidity;BME280_pressure;Samples;Min_cycle;Max_cycle;Signal;HPM_P1;HPM_P2
2022/06/07 00:01:05;;;;;;;4.40;1.15;;;;;;;23.61;47.37;98536.50;4410790;32;20081;-78
2022/06/07 00:03:30;;;;;;;4.37;1.40;;;;;;;23.61;47.53;98539.19;4423654;32;20139;-79
2022/06/07 00:05:56;;;;;;;2.53;1.20;;;;;;;23.60;47.50;98539.34;4423686;32;20409;-79
2022/06/07 00:08:22;;;;;;;2.65;1.37;;;;;;;23.60;47.43;98540.16;4410751;32;20131;-79
2022/06/07 00:10:49;;;;;;;4.10;1.25;;;;;;;23.58;47.40;98538.69;4423263;32;20106;-79
2022/06/07 00:13:15;;;;;;;2.00;1.10;;;;;;;23.57;47.18;98535.16;4410634;32;20432;-79
2022/06/07 00:15:41;;;;;;;4.12;1.10;;;;;;;23.55;47.05;98537.19;4423458;32;20166;-79
2022/06/07 00:18:08;;;;;;;3.28;1.17;;;;;;;23.51;46.86;98531.31;4411012;32;20112;-78
2022/06/07 00:20:34;;;;;;;4.55;1.23;;;;;;;23.50;46.75;98536.84;4423527;32;20102;-78
2022/06/07 00:23:00;;;;;;;3.62;1.23;;;;;;;23.50;46.63;98534.16;4423508;32;20116;-79
2022/06/07 00:25:25;;;;;;;1.75;1.00;;;;;;;23.50;46.63;98535.00;4410741;32;20469;-78
2022/06/07 00:27:51;;;;;;;2.60;1.10;;;;;;;23.50;46.65;98536.84;4410660;32;20152;-78
2022/06/07 00:30:17;;;;;;;2.95;1.30;;;;;;;23.49;46.60;98535.19;4456236;31;20080;-78
2022/06/07 00:32:44;;;;;;;2.72;1.30;;;;;;;23.45;46.68;98521.25;4503495;31;20245;-78
2022/06/07 00:35:10;;;;;;;4.57;1.20;;;;;;;23.44;46.72;98532.16;4489169;31;20549;-79
2022/06/07 00:37:36;;;;;;;3.75;1.15;;;;;;;23.45;46.54;98525.78;4489174;31;20130;-79
2022/06/07 00:40:01;;;;;;;2.17;1.00;;;;;;;23.40;46.46;98520.91;4475388;31;20080;-79
2022/06/07 00:42:26;;;;;;;3.20;1.00;;;;;;;23.39;46.40;98521.91;4503587;31;20080;-79
2022/06/07 00:44:52;;;;;;;3.15;1.12;;;;;;;23.39;46.54;98521.09;4503590;31;20097;-78
2022/06/07 00:47:20;;;;;;;2.45;1.10;;;;;;;23.38;46.55;98517.56;4503447;31;20136;-79
2022/06/07 00:49:56;;;;;;;2.10;0.98;;;;;;;23.37;46.49;98526.62;4489071;31;20099;-79
2022/06/07 00:52:24;;;;;;;1.77;1.00;;;;;;;23.34;46.43;98517.06;4488870;31;20089;-79
2022/06/07 00:54:50;;;;;;;1.85;0.80;;;;;;;23.35;46.40;98517.91;4503242;31;20157;-78
2022/06/07 00:57:16;;;;;;;2.33;0.77;;;;;;;23.33;46.54;98515.41;4503073;31;20084;-78
2022/06/07 00:59:42;;;;;;;2.58;1.00;;;;;;;23.35;46.42;98516.06;4488822;31;20087;-79
2022/06/07 01:02:07;;;;;;;3.12;1.00;;;;;;;23.34;46.56;98511.69;4503129;31;20153;-79
2022/06/07 01:04:33;;;;;;;2.20;0.90;;;;;;;23.34;46.86;98521.63;4503133;31;20118;-79
2022/06/07 01:12:27;;;;;;;2.30;1.00;;;;;;;23.32;47.58;98502.13;4490820;31;20164;-79
2022/06/07 01:14:53;;;;;;;2.60;1.10;;;;;;;23.40;47.89;98503.97;4488722;31;20104;-79
2022/06/07 01:17:21;;;;;;;3.00;1.05;;;;;;;23.35;48.16;98505.31;4475765;31;20109;-76
2022/06/07 01:19:47;;;;;;;2.83;1.00;;;;;;;23.14;49.33;98496.94;4503176;31;20083;-77
2022/06/07 01:22:13;;;;;;;2.15;0.93;;;;;;;23.25;49.25;98506.50;4488939;31;20123;-77
2022/06/07 01:24:39;;;;;;;2.50;1.10;;;;;;;23.28;49.19;98496.25;4488956;31;20136;-77
2022/06/07 01:27:06;;;;;;;2.60;0.93;;;;;;;23.25;49.81;98498.44;4488960;31;20102;-77
2022/06/07 01:29:32;;;;;;;2.22;1.10;;;;;;;23.17;50.22;98496.62;4503107;31;20131;-77
2022/06/07 01:31:57;;;;;;;4.00;1.20;;;;;;;23.15;50.51;98502.16;4503216;31;20088;-77
2022/06/07 01:34:22;;;;;;;2.60;1.10;;;;;;;23.19;50.48;98491.91;4503174;31;20124;-77
2022/06/07 01:36:48;;;;;;;3.60;1.20;;;;;;;23.19;50.66;98491.91;4488931;31;20127;-77
2022/06/07 01:41:57;;;;;;;3.08;1.25;;;;;;;23.13;50.93;98488.06;4503030;31;20160;-77
2022/06/07 01:44:25;;;;;;;2.67;1.10;;;;;;;22.99;51.36;98495.97;4488498;31;20096;-77
2022/06/07 01:46:52;;;;;;;2.60;1.40;;;;;;;23.04;51.13;98488.25;4488351;31;20159;-77
2022/06/07 01:49:17;;;;;;;5.00;1.25;;;;;;;23.03;51.20;98489.28;4488289;31;20080;-77
2022/06/07 01:51:43;;;;;;;4.22;1.40;;;;;;;22.85;51.67;98490.28;4488455;31;20132;-77
2022/06/07 01:54:12;;;;;;;3.37;1.10;;;;;;;22.98;51.29;98495.09;4502677;31;20099;-76
2022/06/07 01:56:38;;;;;;;3.33;1.20;;;;;;;23.07;51.11;98487.91;4488322;31;20111;-76
2022/06/07 01:59:04;;;;;;;4.12;1.20;;;;;;;23.05;51.07;98489.94;4502773;31;20088;-75
2022/06/07 02:01:29;;;;;;;3.03;1.40;;;;;;;23.05;51.07;98488.09;4488505;31;20118;-77
2022/06/07 02:03:55;;;;;;;2.37;1.30;;;;;;;23.05;51.11;98485.41;4502750;31;20135;-76
2022/06/07 02:06:20;;;;;;;3.83;1.60;;;;;;;23.09;51.13;98488.59;4502716;31;20119;-76
2022/06/07 02:08:46;;;;;;;3.05;1.37;;;;;;;23.01;51.27;98477.81;4488188;31;20121;-77
2022/06/07 02:11:14;;;;;;;2.87;1.30;;;;;;;23.03;51.17;98473.16;4502448;31;20127;-77
2022/06/07 02:13:40;;;;;;;3.53;1.10;;;;;;;22.97;51.33;98482.69;4502566;31;20092;-76
2022/06/07 02:16:07;;;;;;;3.37;1.20;;;;;;;22.82;51.94;98476.34;4502551;31;20079;-78
2022/06/07 02:18:33;;;;;;;3.83;1.30;;;;;;;22.88;51.73;98473.81;4488200;31;20140;-78
2022/06/07 02:21:00;;;;;;;3.92;1.30;;;;;;;22.83;52.02;98469.94;4502496;31;20114;-79
2022/06/07 02:23:26;;;;;;;3.53;1.48;;;;;;;22.87;51.91;98460.53;4488264;31;20454;-79
2022/06/07 02:25:54;;;;;;;3.70;1.40;;;;;;;22.78;52.15;98457.03;4502394;31;20096;-78
2022/06/07 02:28:23;;;;;;;4.00;1.40;;;;;;;22.78;52.25;98457.03;4488050;31;20163;-78
2022/06/07 02:30:48;;;;;;;3.08;1.37;;;;;;;22.79;52.15;98453.31;4488156;31;20134;-78
2022/06/07 02:33:14;;;;;;;3.80;1.23;;;;;;;22.73;52.35;98449.47;4502388;31;20554;-79
2022/06/07 02:35:40;;;;;;;3.55;1.35;;;;;;;22.75;52.37;98450.16;4487893;31;20137;-79
2022/06/07 02:38:07;;;;;;;2.37;1.30;;;;;;;22.62;52.77;98452.53;4487924;31;20072;-78
2022/06/07 02:40:33;;;;;;;3.65;1.37;;;;;;;22.67;52.53;98462.75;4502289;31;20100;-79
2022/06/07 02:42:58;;;;;;;6.80;1.70;;;;;;;22.70;52.47;98454.37;4487870;31;20118;-79
2022/06/07 02:45:24;;;;;;;2.75;1.40;;;;;;;22.67;52.61;98449.31;4502106;31;20083;-79
2022/06/07 02:47:50;;;;;;;3.50;1.50;;;;;;;22.66;52.61;98461.09;4487839;31;20088;-79
2022/06/07 02:50:15;;;;;;;3.53;1.35;;;;;;;22.74;52.40;98458.38;4487677;31;20111;-79
2022/06/07 02:52:41;;;;;;;5.07;1.48;;;;;;;22.63;52.74;98459.56;4487804;31;20173;-78
2022/06/07 02:55:07;;;;;;;4.47;1.35;;;;;;;22.69;52.60;98458.88;4502053;31;20321;-79
2022/06/07 02:57:32;;;;;;;2.30;1.20;;;;;;;22.73;52.58;98456.69;4501971;31;20080;-79
2022/06/07 02:59:58;;;;;;;5.12;1.60;;;;;;;22.75;52.53;98460.06;4487585;31;20451;-79
2022/06/07 03:02:23;;;;;;;4.15;1.50;;;;;;;22.74;52.72;98458.38;4487846;31;20088;-79
2022/06/07 03:04:49;;;;;;;3.60;1.80;;;;;;;22.65;52.98;98454.84;4503929;31;20122;-77
2022/06/07 03:07:14;;;;;;;5.78;1.60;;;;;;;22.76;52.72;98459.88;4489487;31;20132;-79
2022/06/07 03:09:40;;;;;;;4.07;1.55;;;;;;;22.80;52.67;98459.56;4503879;31;20131;-78
2022/06/07 03:12:06;;;;;;;6.50;1.60;;;;;;;22.93;52.42;98457.19;4503756;31;20446;-76
2022/06/07 03:14:31;;;;;;;5.15;1.70;;;;;;;22.89;52.54;98459.38;4503883;31;20072;-76
2022/06/07 03:16:56;;;;;;;3.42;1.50;;;;;;;22.92;52.49;98456.34;4503894;31;20072;-77
2022/06/07 03:19:22;;;;;;;4.68;1.80;;;;;;;22.92;52.46;98452.81;4489551;31;20096;-77
2022/06/07 03:21:47;;;;;;;3.08;1.42;;;;;;;23.06;52.19;98456.66;4504139;31;20127;-76
2022/06/07 03:24:13;;;;;;;4.72;1.50;;;;;;;22.91;52.46;98462.72;4504026;31;20103;-77
2022/06/07 03:26:38;;;;;;;3.75;1.50;;;;;;;23.00;52.29;98460.84;4504110;31;20080;-76
2022/06/07 03:29:04;;;;;;;3.90;1.50;;;;;;;23.10;52.10;98463.38;4503823;31;20440;-75
2022/06/07 03:31:30;;;;;;;4.75;1.50;;;;;;;23.16;52.00;98460.03;4489769;31;20108;-76
2022/06/07 03:33:56;;;;;;;3.40;1.58;;;;;;;23.33;51.57;98467.03;4489708;31;20139;-76
2022/06/07 03:36:24;;;;;;;4.72;1.70;;;;;;;23.23;51.79;98455.63;4504017;31;20088;-76
2022/06/07 03:38:50;;;;;;;3.33;1.42;;;;;;;23.45;51.31;98459.41;4489733;31;20104;-76
2022/06/07 03:41:21;;;;;;;3.17;1.42;;;;;;;23.58;51.15;98458.84;4503916;31;20088;-76
2022/06/07 03:43:47;;;;;;;4.70;1.80;;;;;;;23.62;51.10;98462.03;4489786;31;20088;-76
2022/06/07 03:46:16;;;;;;;3.33;1.60;;;;;;;23.71;50.88;98460.97;4504006;31;20426;-76
2022/06/07 03:48:42;;;;;;;5.05;1.73;;;;;;;23.81;50.68;98452.72;4489443;31;20131;-76
2022/06/07 03:51:08;;;;;;;3.55;1.50;;;;;;;23.86;50.67;98461.94;4503926;31;20088;-77
2022/06/07 03:53:34;;;;;;;3.65;1.48;;;;;;;23.97;50.40;98459.84;4489415;31;20083;-76
2022/06/07 03:55:59;;;;;;;4.80;1.77;;;;;;;24.06;50.10;98456.94;4503895;31;20103;-76
2022/06/07 03:58:25;;;;;;;5.40;1.70;;;;;;;24.08;50.16;98460.28;4503978;31;20111;-76
2022/06/07 04:00:50;;;;;;;3.70;1.73;;;;;;;24.15;49.89;98460.41;4503918;31;20100;-76
2022/06/07 04:03:16;;;;;;;3.35;1.52;;;;;;;24.09;49.85;98451.19;4489406;31;20106;-77
2022/06/07 04:05:43;;;;;;;3.15;1.60;;;;;;;24.14;49.83;98453.34;4489376;31;20088;-76
2022/06/07 04:08:11;;;;;;;4.03;1.67;;;;;;;24.19;49.79;98448.28;4488483;31;20765;-73
2022/06/07 04:10:47;;;;;;;4.20;1.60;;;;;;;24.34;49.47;98451.03;4499533;31;20118;-76
2022/06/07 04:13:14;;;;;;;4.68;1.45;;;;;;;24.35;49.68;98444.63;4489051;31;20106;-77
2022/06/07 04:15:40;;;;;;;3.00;1.40;;;;;;;24.40;49.58;98439.53;4502660;31;20080;-76
2022/06/07 04:18:05;;;;;;;4.18;1.67;;;;;;;24.39;49.86;98440.53;4489094;31;20123;-77
2022/06/07 04:20:31;;;;;;;4.22;1.48;;;;;;;24.56;49.66;98435.06;4474378;32;20144;-79
2022/06/07 04:22:56;;;;;;;3.83;1.67;;;;;;;24.73;49.21;98436.59;4473324;32;20097;-79
2022/06/07 04:25:22;;;;;;;4.20;1.48;;;;;;;24.91;49.01;98433.53;4487579;32;20096;-79
2022/06/07 04:27:47;;;;;;;4.37;1.60;;;;;;;24.97;48.44;98422.00;4488973;31;20095;-78
2022/06/07 04:30:13;;;;;;;5.95;1.80;;;;;;;25.12;48.33;98422.03;4485735;31;20092;-78
2022/06/07 04:32:43;;;;;;;3.83;1.50;;;;;;;25.28;48.47;98423.72;4486157;31;20127;-78
2022/06/07 04:35:09;;;;;;;4.80;1.50;;;;;;;25.33;48.54;98417.78;4472724;32;20612;-78
2022/06/07 04:37:34;;;;;;;5.12;1.70;;;;;;;25.55;47.98;98419.50;4486326;32;20100;-78
2022/06/07 04:40:00;;;;;;;3.92;1.48;;;;;;;25.81;47.22;98416.28;4486187;32;20109;-79
2022/06/07 04:42:26;;;;;;;3.42;1.60;;;;;;;25.92;46.74;98412.28;4486115;32;20111;-77
2022/06/07 04:44:51;;;;;;;3.67;1.37;;;;;;;26.09;46.11;98424.50;4471877;32;20101;-76
2022/06/07 04:47:17;;;;;;;3.97;1.58;;;;;;;26.32;45.70;98428.88;4458798;32;20113;-74
2022/06/07 04:49:42;;;;;;;3.60;1.45;;;;;;;26.34;45.57;98426.81;4486104;32;20087;-76
2022/06/07 04:52:08;;;;;;;4.60;1.77;;;;;;;26.53;45.08;98427.19;4486120;32;20084;-75
2022/06/07 04:54:33;;;;;;;4.32;1.67;;;;;;;26.71;44.60;98427.56;4471654;32;20127;-75
2022/06/07 04:56:59;;;;;;;3.67;1.70;;;;;;;26.64;44.41;98421.28;4486146;32;20092;-76
2022/06/07 04:59:24;;;;;;;3.47;1.50;;;;;;;26.71;44.42;98427.56;4486103;32;20099;-75
2022/06/07 05:01:50;;;;;;;3.95;1.55;;;;;;;26.84;44.06;98430.37;4471755;32;20096;-77
2022/06/07 05:04:15;;;;;;;3.70;1.62;;;;;;;26.77;44.30;98432.19;4485995;32;20150;-76
2022/06/07 05:06:42;;;;;;;4.07;1.70;;;;;;;27.01;43.59;98436.31;4471621;32;20123;-77
2022/06/07 05:09:15;;;;;;;3.27;1.57;;;;;;;26.87;43.63;98421.03;4487079;32;20130;-77
2022/06/07 05:11:41;;;;;;;4.72;1.60;;;;;;;27.03;43.79;98425.31;4473038;32;20238;-79
2022/06/07 05:14:07;;;;;;;5.05;1.55;;;;;;;27.03;43.87;98428.84;4487132;32;20081;-79
2022/06/07 05:16:36;;;;;;;3.80;1.40;;;;;;;27.17;43.76;98432.44;4473055;32;20089;-79
2022/06/07 05:19:02;;;;;;;4.22;1.70;;;;;;;27.41;43.12;98433.88;4472963;32;20523;-79
2022/06/07 05:21:27;;;;;;;4.05;1.42;;;;;;;27.43;42.89;98436.38;4487116;32;20141;-79
2022/06/07 05:23:53;;;;;;;4.32;1.65;;;;;;;27.46;42.24;98427.84;4472873;32;20081;-79
2022/06/07 05:26:33;;;;;;;3.65;1.60;;;;;;;27.61;41.99;98436.66;4486764;32;20440;-78
2022/06/07 05:28:59;;;;;;;3.20;1.67;;;;;;;27.56;42.01;98441.00;4473232;32;20583;-79
2022/06/07 05:31:25;;;;;;;4.82;1.60;;;;;;;27.62;41.80;98441.03;4486987;32;20084;-79
2022/06/07 05:33:50;;;;;;;5.50;1.73;;;;;;;27.60;41.74;98445.81;4472911;32;20387;-79
2022/06/07 05:36:16;;;;;;;2.90;1.50;;;;;;;27.66;41.23;98441.44;4487131;32;20172;-79
2022/06/07 05:38:42;;;;;;;3.45;1.50;;;;;;;27.70;39.93;98441.88;4472879;32;20107;-79
2022/06/07 05:41:11;;;;;;;3.92;1.92;;;;;;;27.59;41.37;98451.44;4472841;32;20080;-81
2022/06/07 05:43:37;;;;;;;3.78;1.60;;;;;;;27.73;40.75;98449.59;4472789;32;20120;-79
2022/06/07 05:46:02;;;;;;;5.70;1.65;;;;;;;27.83;41.00;98441.94;4486988;32;20099;-80
2022/06/07 05:48:33;;;;;;;5.55;1.45;;;;;;;27.94;40.12;98443.25;4487010;32;20120;-81
2022/06/07 05:50:58;;;;;;;5.18;1.60;;;;;;;27.96;39.22;98439.28;4487047;32;20088;-81
2022/06/07 05:53:24;;;;;;;4.55;1.85;;;;;;;28.11;37.58;98435.59;4487104;32;20076;-83
2022/06/07 05:55:49;;;;;;;2.72;1.42;;;;;;;28.02;38.19;98434.94;4459780;32;20148;-82
2022/06/07 05:58:15;;;;;;;6.15;1.70;;;;;;;28.21;37.92;98438.72;4486977;32;20083;-80
2022/06/07 06:00:40;;;;;;;4.07;1.40;;;;;;;28.00;38.28;98432.44;4487199;32;20218;-81
2022/06/07 06:03:06;;;;;;;3.35;1.52;;;;;;;28.11;38.69;98438.31;4487074;32;20080;-80
2022/06/07 06:05:33;;;;;;;5.20;1.70;;;;;;;28.17;37.97;98440.19;4471291;31;20152;-80
2022/06/07 06:10:43;;;;;;;3.28;1.55;;;;;;;27.56;38.61;98444.53;4473282;31;20114;-87
2022/06/07 06:13:08;;;;;;;4.97;1.73;;;;;;;27.89;38.28;98438.44;4491718;31;20088;-80
2022/06/07 06:15:34;;;;;;;5.00;1.77;;;;;;;27.99;38.37;98436.19;4490815;31;20111;-79
2022/06/07 06:18:03;;;;;;;5.57;1.73;;;;;;;28.00;37.81;98435.12;4490883;31;20241;-80
2022/06/07 06:20:28;;;;;;;5.25;1.67;;;;;;;28.19;37.25;98440.81;4491732;31;20459;-81
2022/06/07 06:22:54;;;;;;;5.32;1.70;;;;;;;28.38;36.42;98439.19;4491028;31;20080;-80
2022/06/07 06:25:19;;;;;;;4.55;1.62;;;;;;;28.32;37.06;98439.97;4476506;31;20100;-80
2022/06/07 06:27:45;;;;;;;5.53;1.70;;;;;;;28.30;37.48;98439.34;4476139;31;20176;-80
2022/06/07 06:30:13;;;;;;;4.43;1.70;;;;;;;28.55;36.69;98437.75;4478130;31;20107;-80
2022/06/07 06:32:39;;;;;;;3.65;1.58;;;;;;;28.52;36.23;98440.88;4477834;31;20452;-83
2022/06/07 06:35:05;;;;;;;5.80;1.65;;;;;;;28.51;36.13;98433.81;4494789;31;20134;-84
2022/06/07 06:37:31;;;;;;;5.40;1.60;;;;;;;28.68;35.81;98430.66;4477974;31;20109;-86
2022/06/07 06:39:56;;;;;;;4.22;1.60;;;;;;;28.41;35.89;98428.75;4492488;31;20114;-88
2022/06/07 06:42:22;;;;;;;4.15;1.60;;;;;;;28.37;36.17;98424.78;4491206;31;20661;-81
2022/06/07 06:44:47;;;;;;;3.75;1.60;;;;;;;28.47;36.83;98428.94;4490037;31;20491;-81
2022/06/07 06:47:13;;;;;;;4.97;1.87;;;;;;;28.55;36.59;98423.34;4490331;31;20088;-81
2022/06/07 06:49:41;;;;;;;4.70;1.60;;;;;;;28.66;37.09;98428.16;4476609;31;20088;-81
2022/06/07 06:52:07;;;;;;;3.78;1.50;;;;;;;28.87;36.83;98423.56;4476755;31;20080;-82
2022/06/07 06:54:34;;;;;;;6.77;2.27;;;;;;;29.05;37.04;98426.44;4474122;31;20407;-80
2022/06/07 06:57:00;;;;;;;5.10;2.08;;;;;;;29.21;37.59;98417.88;4494447;31;20493;-80
2022/06/07 06:59:25;;;;;;;4.90;2.03;;;;;;;29.36;37.66;98420.34;4478723;31;20088;-82
2022/06/07 07:01:51;;;;;;;5.55;2.03;;;;;;;29.47;37.59;98421.53;4479843;31;20119;-80
2022/06/07 07:04:19;;;;;;;7.40;2.20;;;;;;;29.58;37.36;98423.59;4488282;31;20100;-81
2022/06/07 07:06:46;;;;;;;5.12;1.80;;;;;;;29.69;37.02;98413.09;4484050;31;20097;-81
2022/06/07 07:09:12;;;;;;;4.95;1.45;;;;;;;29.85;36.58;98418.06;4484872;31;20457;-81
2022/06/07 07:11:43;;;;;;;6.72;3.03;;;;;;;29.86;35.78;98419.72;4485879;31;20096;-81
2022/06/07 07:14:10;;;;;;;5.93;1.98;;;;;;;29.91;36.01;98419.09;4486237;31;20459;-82
2022/06/07 07:16:47;;;;;;;3.60;1.70;;;;;;;29.91;35.81;98417.19;4486188;31;20096;-82
2022/06/07 07:19:14;;;;;;;5.05;1.90;;;;;;;30.07;34.82;98417.72;4486156;31;20104;-82
2022/06/07 07:21:49;;;;;;;4.80;1.70;;;;;;;29.95;34.59;98420.31;4484910;32;20083;-81
2022/06/07 07:24:18;;;;;;;5.95;1.70;;;;;;;30.04;34.76;98421.72;4471515;32;20528;-82
2022/06/07 07:26:44;;;;;;;4.22;1.65;;;;;;;30.07;34.53;98418.56;4485984;31;20100;-82
2022/06/07 07:29:11;;;;;;;6.73;1.73;;;;;;;30.19;34.25;98408.66;4484597;32;20145;-81
2022/06/07 07:31:37;;;;;;;;;;;;;;;30.22;33.89;98406.56;4484808;32;20183;-82
2022/06/07 07:34:04;;;;;;;6.20;1.90;;;;;;;30.31;33.68;98405.25;4484460;32;19988;-82
2022/06/07 07:36:30;;;;;;;4.65;1.73;;;;;;;30.21;33.78;98400.31;4484550;32;20531;-82
2022/06/07 07:38:57;;;;;;;5.07;1.90;;;;;;;30.31;33.94;98406.09;4485669;31;20360;-82
2022/06/07 07:41:27;;;;;;;3.87;1.70;;;;;;;30.26;33.77;98397.75;4484490;32;20131;-82
2022/06/07 07:43:54;;;;;;;3.67;1.77;;;;;;;30.27;33.26;98415.72;4484303;32;20127;-82
2022/06/07 07:46:21;;;;;;;3.25;1.70;;;;;;;30.09;33.37;98402.88;4484454;32;20108;-82
2022/06/07 07:48:46;;;;;;;5.62;1.70;;;;;;;30.17;33.47;98397.19;4485074;32;20464;-81
2022/06/07 07:51:33;;;;;;;5.03;1.70;;;;;;;30.22;33.23;98404.66;4487926;31;20085;-81
2022/06/07 07:54:00;;;;;;;5.68;1.98;;;;;;;30.27;33.11;98395.84;4486859;32;20455;-82
2022/06/07 07:56:26;;;;;;;5.65;1.85;;;;;;;30.18;33.08;98407.00;4488207;31;20107;-81
2022/06/07 07:58:52;;;;;;;6.65;2.55;;;;;;;30.16;32.92;98402.84;4488109;31;20390;-81
2022/06/07 08:01:21;;;;;;;5.68;1.98;;;;;;;30.14;34.02;98403.06;4488130;31;20085;-82
2022/06/07 08:03:48;;;;;;;3.12;1.60;;;;;;;30.08;33.13;98403.94;4486865;32;20096;-82
2022/06/07 08:06:17;;;;;;;7.40;2.60;;;;;;;30.15;33.17;98401.16;4486840;32;20112;-82
2022/06/07 08:08:43;;;;;;;4.00;1.65;;;;;;;30.20;32.67;98398.63;4486906;32;20424;-82
2022/06/07 08:11:09;;;;;;;5.67;1.70;;;;;;;30.11;32.31;98397.22;4487817;31;20084;-81
2022/06/07 08:13:35;;;;;;;5.37;1.70;;;;;;;30.12;33.21;98390.75;4488009;31;20077;-82
2022/06/07 08:16:02;;;;;;;5.72;1.62;;;;;;;30.10;32.37;98399.13;4488016;31;20136;-82
2022/06/07 08:18:27;;;;;;;5.05;1.80;;;;;;;30.27;32.71;98393.13;4487872;31;20111;-82
2022/06/07 08:20:58;;;;;;;5.53;1.80;;;;;;;30.13;33.04;98389.69;4487852;31;20088;-81
2022/06/07 08:23:24;;;;;;;6.60;1.90;;;;;;;30.16;33.34;98390.06;4487637;31;20129;-82
2022/06/07 08:25:49;;;;;;;4.85;1.85;;;;;;;30.18;32.87;98387.16;4487581;31;20146;-81
2022/06/07 08:28:15;;;;;;;5.75;1.60;;;;;;;30.20;32.54;98387.75;4487498;31;20370;-82
2022/06/07 08:30:45;;;;;;;6.72;1.92;;;;;;;30.18;32.58;98384.44;4487509;31;20077;-82
2022/06/07 08:38:39;;;;;;;5.60;1.90;;;;;;;30.32;33.23;98382.47;4487527;32;20106;-81
2022/06/07 08:41:05;;;;;;;4.40;1.55;;;;;;;30.36;32.54;98383.69;4486290;32;20080;-81
2022/06/07 08:43:31;;;;;;;4.87;1.70;;;;;;;30.40;32.36;98384.09;4487637;31;20084;-82
2022/06/07 08:45:57;;;;;;;6.05;1.80;;;;;;;30.44;32.41;98382.59;4486372;32;20135;-82
2022/06/07 08:48:28;;;;;;;5.75;1.58;;;;;;;30.37;31.93;98379.94;4487392;31;20068;-82
2022/06/07 08:51:26;;;;;;;4.20;1.30;;;;;;;30.31;32.01;98373.50;4486387;32;20140;-82
2022/06/07 08:53:54;;;;;;;4.82;1.95;;;;;;;30.40;30.12;98384.91;4487436;31;20114;-82
2022/06/07 08:56:27;;;;;;;4.32;1.45;;;;;;;30.33;30.54;98389.59;4486257;32;20092;-81
2022/06/07 08:58:54;;;;;;;4.20;1.58;;;;;;;30.25;31.29;98370.78;4486305;32;20337;-81
2022/06/07 09:01:47;;;;;;;3.12;1.33;;;;;;;29.92;31.88;98369.13;4485596;32;20116;-81
2022/06/07 09:04:21;;;;;;;4.70;1.50;;;;;;;30.07;32.32;98376.97;4484135;31;97600;-81
2022/06/07 09:06:50;;;;;;;3.87;1.35;;;;;;;30.13;33.14;98373.38;4487414;31;20096;-82
2022/06/07 09:09:18;;;;;;;5.45;1.70;;;;;;;30.34;32.08;98374.94;4487210;31;20106;-82
2022/06/07 09:14:33;;;;;;;6.57;2.30;;;;;;;30.55;32.21;98365.56;4486377;32;20106;-82
2022/06/07 09:17:03;;;;;;;4.40;1.50;;;;;;;30.84;32.00;98363.19;4486080;32;20096;-82
2022/06/07 09:19:31;;;;;;;3.85;1.60;;;;;;;31.01;31.15;98363.47;4487258;31;20118;-82
2022/06/07 09:22:00;;;;;;;3.70;1.40;;;;;;;30.88;30.24;98358.94;4487267;32;20102;-82
2022/06/07 09:24:33;;;;;;;3.87;1.50;;;;;;;31.15;30.40;98357.63;4486110;32;20130;-82
2022/06/07 09:27:26;;;;;;;2.95;1.50;;;;;;;31.31;30.81;98358.06;4485928;32;20092;-82
2022/06/07 09:29:57;;;;;;;5.18;1.35;;;;;;;31.52;29.77;98352.19;4482978;32;20088;-82
2022/06/07 09:32:26;;;;;;;4.65;1.58;;;;;;;31.80;29.79;98350.75;4487282;31;20106;-82
2022/06/07 09:34:57;;;;;;;4.03;1.30;;;;;;;31.98;29.87;98349.03;4486989;31;20083;-81
2022/06/07 09:37:39;;;;;;;3.90;1.33;;;;;;;32.02;29.51;98347.50;4487141;32;20198;-82
2022/06/07 09:40:20;;;;;;;9.15;1.80;;;;;;;32.23;28.48;98346.97;4487162;31;20084;-82
2022/06/07 09:42:52;;;;;;;6.20;1.52;;;;;;;32.02;28.47;98342.88;4487173;31;20072;-82
2022/06/07 09:45:20;;;;;;;4.53;1.50;;;;;;;31.96;28.87;98340.25;4485979;32;20764;-82
2022/06/07 09:47:46;;;;;;;3.20;1.45;;;;;;;32.07;28.65;98347.66;4485998;32;20100;-82
2022/06/07 09:50:25;;;;;;;4.15;1.62;;;;;;;32.08;29.11;98341.94;4485794;32;20076;-82
2022/06/07 09:52:59;;;;;;;5.72;1.80;;;;;;;32.17;28.56;98336.19;4485959;32;20107;-82
2022/06/07 09:55:32;;;;;;;3.92;1.40;;;;;;;32.24;28.12;98336.88;4486073;32;20169;-82
2022/06/07 09:58:05;;;;;;;7.93;2.08;;;;;;;32.44;28.68;98328.38;4486137;32;20149;-82
2022/06/07 10:00:50;;;;;;;5.87;1.80;;;;;;;32.38;29.03;98332.06;4487097;31;20139;-82
2022/06/07 10:03:40;;;;;;;7.62;1.85;;;;;;;32.50;29.89;98316.53;4472724;32;20073;-82
2022/06/07 10:06:28;;;;;;;7.70;2.00;;;;;;;32.46;28.67;98326.25;4487037;31;20096;-82
2022/06/07 10:09:08;;;;;;;5.45;1.80;;;;;;;32.60;28.93;98324.13;4485672;32;20096;-82
2022/06/07 10:11:43;;;;;;;6.10;1.60;;;;;;;32.66;28.12;98317.72;4485740;32;20084;-81
2022/06/07 10:14:15;;;;;;;4.45;1.70;;;;;;;32.62;28.57;98314.63;4485398;32;20504;-82
2022/06/07 10:16:52;;;;;;;4.87;1.50;;;;;;;32.51;28.53;98312.75;4486866;31;20084;-82
2022/06/07 10:19:44;;;;;;;4.43;1.40;;;;;;;32.55;28.45;98313.91;4486872;31;20097;-82
2022/06/07 10:22:25;;;;;;;3.72;1.50;;;;;;;32.62;27.54;98311.09;4485678;32;20126;-82
2022/06/07 10:25:13;;;;;;;3.55;1.48;;;;;;;32.47;28.53;98311.53;4486582;31;20404;-81
2022/06/07 10:28:23;;;;;;;4.72;1.70;;;;;;;32.41;28.66;98310.56;4486906;31;20120;-81
2022/06/07 10:31:14;;;;;;;3.83;1.50;;;;;;;32.41;28.43;98309.75;4422555;32;20127;-81
2022/06/07 10:33:51;;;;;;;5.55;1.55;;;;;;;32.36;28.23;98299.56;4416471;32;20306;-81
2022/06/07 10:36:29;;;;;;;5.78;1.48;;;;;;;32.32;28.57;98292.94;4422609;32;20112;-82
2022/06/07 10:39:07;;;;;;;3.40;1.37;;;;;;;32.18;29.17;98295.06;4422132;32;20128;-81
2022/06/07 10:42:23;;;;;;;3.37;1.42;;;;;;;32.20;29.65;98286.63;4422234;32;20175;-82
2022/06/07 10:45:04;;;;;;;3.60;1.30;;;;;;;32.22;28.91;98288.09;4376738;32;20470;-82
2022/06/07 10:47:48;;;;;;;4.75;1.45;;;;;;;32.17;28.03;98285.22;4376550;32;20108;-82
2022/06/07 10:50:20;;;;;;;6.50;2.28;;;;;;;32.24;28.59;98288.66;4376726;32;20117;-82
2022/06/07 10:52:55;;;;;;;4.65;1.70;;;;;;;32.29;28.26;98285.22;4376900;32;20111;-82
2022/06/07 10:55:50;;;;;;;6.18;1.50;;;;;;;32.45;28.25;98280.94;4376481;32;20471;-82
2022/06/07 10:58:42;;;;;;;4.72;1.50;;;;;;;32.54;28.23;98271.34;4375811;32;20128;-81
2022/06/07 11:01:10;;;;;;;4.75;1.60;;;;;;;32.51;27.56;98264.47;4376419;32;20474;-81
2022/06/07 11:03:49;;;;;;;4.75;1.40;;;;;;;32.48;27.74;98264.94;4376489;32;20126;-82
2022/06/07 11:09:27;;;;;;;6.20;1.60;;;;;;;32.45;28.11;98257.25;4437122;32;20178;-82
2022/06/07 11:11:56;;;;;;;5.53;1.52;;;;;;;32.50;27.74;98251.09;4436982;32;20085;-82
2022/06/07 11:14:41;;;;;;;4.95;1.58;;;;;;;32.60;27.79;98245.88;4424401;32;20258;-82
2022/06/07 11:17:17;;;;;;;8.55;2.10;;;;;;;32.76;27.91;98240.75;4437125;32;20135;-82
2022/06/07 11:19:43;;;;;;;5.97;2.00;;;;;;;32.86;27.94;98243.69;4453076;32;20076;-82
2022/06/07 11:22:20;;;;;;;2.72;1.12;;;;;;;32.98;27.54;98244.47;4485916;32;20138;-82
2022/06/07 11:25:17;;;;;;;5.85;1.37;;;;;;;33.11;26.07;98235.22;4486492;32;20101;-82
2022/06/07 11:27:51;;;;;;;6.18;1.37;;;;;;;33.19;25.80;98236.75;4423613;32;20085;-82
2022/06/07 11:30:22;;;;;;;4.70;1.52;;;;;;;33.23;25.99;98232.44;4423707;32;20089;-82
2022/06/07 11:32:53;;;;;;;6.00;1.58;;;;;;;33.19;26.01;98231.28;4423667;32;20177;-81
2022/06/07 11:35:47;;;;;;;4.07;1.60;;;;;;;33.21;25.94;98240.06;4411114;32;20159;-82
2022/06/07 11:38:18;;;;;;;3.92;1.35;;;;;;;33.13;26.02;98224.03;4410682;32;20476;-82
2022/06/07 11:40:47;;;;;;;5.40;1.70;;;;;;;33.07;26.27;98221.22;4423649;32;20097;-82
2022/06/07 11:43:50;;;;;;;8.60;1.83;;;;;;;33.24;25.97;98217.72;4423410;32;20128;-81
2022/06/07 11:46:51;;;;;;;6.85;1.50;;;;;;;33.10;26.13;98218.00;4423565;32;20151;-82
2022/06/07 11:49:29;;;;;;;2.92;1.25;;;;;;;33.08;25.49;98211.94;4377939;32;20087;-81
2022/06/07 11:52:03;;;;;;;2.72;1.37;;;;;;;32.84;25.93;98210.37;4378193;32;20090;-82
2022/06/07 11:54:43;;;;;;;3.45;1.23;;;;;;;32.87;26.28;98212.59;4377855;32;20165;-82
2022/06/07 11:57:32;;;;;;;4.05;1.45;;;;;;;32.87;26.47;98205.25;4378113;32;20098;-82
2022/06/07 12:00:03;;;;;;;5.25;1.42;;;;;;;32.65;26.65;98207.81;4377899;32;20131;-82
2022/06/07 12:02:32;;;;;;;4.72;1.40;;;;;;;32.60;26.62;98202.25;4378097;32;20382;-81
2022/06/07 12:05:04;;;;;;;5.03;1.62;;;;;;;32.55;26.76;98195.81;4421353;32;20292;-81
2022/06/07 12:07:32;;;;;;;3.28;1.23;;;;;;;32.37;27.02;98196.81;4438837;32;20120;-82